sensor_id;sensor_type;location;lat;lon;timestamp;pressure;altitude;pressure_sealevel;temperature;humidity
6224;BME280;3145;42.726;23.342;2024-03-23T00:55:24;73536.06;;;-142.70;59.00
6224;BME280;3145;42.726;23.342;2024-03-23T00:57:49;73540.09;;;-142.70;58.75
6224;BME280;3145;42.726;23.342;2024-03-23T01:00:16;73540.09;;;-142.70;58.80
6224;BME280;3145;42.726;23.342;2024-03-23T01:02:43;73542.13;;;-142.70;58.65
6224;BME280;3145;42.726;23.342;2024-03-23T01:05:10;73538.09;;;-142.70;58.39
6224;BME280;3145;42.726;23.342;2024-03-23T01:07:36;73544.13;;;-142.70;57.89
6224;BME280;3145;42.726;23.342;2024-03-23T01:10:03;73544.13;;;-142.70;58.19
6224;BME280;3145;42.726;23.342;2024-03-23T01:12:29;73552.19;;;-142.70;58.54
6224;BME280;3145;42.726;23.342;2024-03-23T01:14:56;73556.22;;;-142.70;58.32
6224;BME280;3145;42.726;23.342;2024-03-23T01:17:21;73560.25;;;-142.70;58.69
6224;BME280;3145;42.726;23.342;2024-03-23T01:19:49;73564.28;;;-142.70;58.72
6224;BME280;3145;42.726;23.342;2024-03-23T01:22:15;73554.19;;;-142.70;58.57
6224;BME280;3145;42.726;23.342;2024-03-23T01:24:42;73564.28;;;-142.70;58.75
6224;BME280;3145;42.726;23.342;2024-03-23T01:27:08;73572.34;;;-142.70;58.83
6224;BME280;3145;42.726;23.342;2024-03-23T01:29:35;73570.31;;;-142.70;58.68
6224;BME280;3145;42.726;23.342;2024-03-23T01:32:01;73568.31;;;-142.70;58.61
6224;BME280;3145;42.726;23.342;2024-03-23T01:34:27;73572.34;;;-142.70;58.69
6224;BME280;3145;42.726;23.342;2024-03-23T01:36:55;73588.47;;;-142.70;58.44
6224;BME280;3145;42.726;23.342;2024-03-23T01:39:21;73588.47;;;-142.70;58.46
6224;BME280;3145;42.726;23.342;2024-03-23T01:41:47;73590.47;;;-142.70;58.59
6224;BME280;3145;42.726;23.342;2024-03-23T01:44:13;73600.56;;;-142.70;58.76
6224;BME280;3145;42.726;23.342;2024-03-23T01:46:40;73604.56;;;-142.70;59.14
6224;BME280;3145;42.726;23.342;2024-03-23T01:49:08;73608.59;;;-142.70;59.26
6224;BME280;3145;42.726;23.342;2024-03-23T01:51:35;73614.66;;;-142.70;59.41
6224;BME280;3145;42.726;23.342;2024-03-23T01:54:04;73614.66;;;-142.70;59.47
6224;BME280;3145;42.726;23.342;2024-03-23T01:56:30;73614.66;;;-142.70;59.28
6224;BME280;3145;42.726;23.342;2024-03-23T01:58:58;73624.72;;;-142.70;59.47
6224;BME280;3145;42.726;23.342;2024-03-23T02:01:24;73630.78;;;-142.70;59.91
6224;BME280;3145;42.726;23.342;2024-03-23T02:03:51;73628.75;;;-142.70;60.28
6224;BME280;3145;42.726;23.342;2024-03-23T02:06:16;73636.81;;;-142.70;60.14
6224;BME280;3145;42.726;23.342;2024-03-23T02:08:43;73640.84;;;-142.70;60.55
6224;BME280;3145;42.726;23.342;2024-03-23T02:11:10;73636.81;;;-142.70;60.12
6224;BME280;3145;42.726;23.342;2024-03-23T02:13:37;73640.84;;;-142.70;60.46
6224;BME280;3145;42.726;23.342;2024-03-23T02:16:05;73644.88;;;-142.70;60.74
6224;BME280;3145;42.726;23.342;2024-03-23T02:18:32;73654.97;;;-142.70;60.81
6224;BME280;3145;42.726;23.342;2024-03-23T02:20:57;73652.94;;;-142.70;60.54
6224;BME280;3145;42.726;23.342;2024-03-23T02:23:25;73650.94;;;-142.70;60.84
6224;BME280;3145;42.726;23.342;2024-03-23T02:25:51;73667.06;;;-142.70;60.73
6224;BME280;3145;42.726;23.342;2024-03-23T02:28:18;73677.13;;;-142.70;60.55
6224;BME280;3145;42.726;23.342;2024-03-23T02:30:44;73675.09;;;-142.70;60.84
6224;BME280;3145;42.726;23.342;2024-03-23T02:33:11;73685.19;;;-142.70;61.22
6224;BME280;3145;42.726;23.342;2024-03-23T02:35:36;73691.22;;;-142.70;61.23
6224;BME280;3145;42.726;23.342;2024-03-23T02:38:03;73687.19;;;-142.70;61.68
6224;BME280;3145;42.726;23.342;2024-03-23T02:40:31;73685.19;;;-142.70;61.98
6224;BME280;3145;42.726;23.342;2024-03-23T02:42:57;73689.22;;;-142.70;61.92
6224;BME280;3145;42.726;23.342;2024-03-23T02:45:23;73689.22;;;-142.70;62.06
6224;BME280;3145;42.726;23.342;2024-03-23T02:47:50;73689.22;;;-142.70;62.09
6224;BME280;3145;42.726;23.342;2024-03-23T02:50:17;73689.22;;;-142.70;62.44
6224;BME280;3145;42.726;23.342;2024-03-23T02:52:44;73693.25;;;-142.70;62.42
6224;BME280;3145;42.726;23.342;2024-03-23T02:55:10;73685.19;;;-142.70;62.57
6224;BME280;3145;42.726;23.342;2024-03-23T02:57:38;73693.25;;;-142.70;62.57
6224;BME280;3145;42.726;23.342;2024-03-23T03:00:05;73697.28;;;-142.70;62.43
6224;BME280;3145;42.726;23.342;2024-03-23T03:02:32;73697.28;;;-142.70;62.67
6224;BME280;3145;42.726;23.342;2024-03-23T03:04:58;73693.25;;;-142.70;62.66
6224;BME280;3145;42.726;23.342;2024-03-23T03:07:25;73693.25;;;-142.70;61.89
6224;BME280;3145;42.726;23.342;2024-03-23T03:09:50;73701.31;;;-142.70;61.70
6224;BME280;3145;42.726;23.342;2024-03-23T03:12:17;73711.38;;;-142.70;62.12
6224;BME280;3145;42.726;23.342;2024-03-23T03:14:44;73717.44;;;-142.70;62.63
6224;BME280;3145;42.726;23.342;2024-03-23T03:17:11;73717.44;;;-142.70;62.16
6224;BME280;3145;42.726;23.342;2024-03-23T03:19:36;73717.44;;;-142.70;62.60
6224;BME280;3145;42.726;23.342;2024-03-23T03:22:03;73719.44;;;-142.70;62.87
6224;BME280;3145;42.726;23.342;2024-03-23T03:24:29;73717.44;;;-142.70;62.95
6224;BME280;3145;42.726;23.342;2024-03-23T03:26:56;73725.50;;;-142.70;62.73
6224;BME280;3145;42.726;23.342;2024-03-23T03:29:22;73725.50;;;-142.70;62.80
6224;BME280;3145;42.726;23.342;2024-03-23T03:31:51;73723.47;;;-142.70;62.95
6224;BME280;3145;42.726;23.342;2024-03-23T03:34:17;73725.50;;;-142.70;62.62
6224;BME280;3145;42.726;23.342;2024-03-23T03:36:43;73733.56;;;-142.70;63.10
6224;BME280;3145;42.726;23.342;2024-03-23T03:39:09;73737.59;;;-142.70;63.17
6224;BME280;3145;42.726;23.342;2024-03-23T03:41:36;73745.63;;;-142.70;63.28
6224;BME280;3145;42.726;23.342;2024-03-23T03:44:02;73741.63;;;-142.70;63.68
6224;BME280;3145;42.726;23.342;2024-03-23T03:46:28;73739.59;;;-142.70;63.59
6224;BME280;3145;42.726;23.342;2024-03-23T03:48:55;73743.63;;;-142.70;63.15
6224;BME280;3145;42.726;23.342;2024-03-23T03:51:22;73743.63;;;-142.70;63.29
6224;BME280;3145;42.726;23.342;2024-03-23T03:53:48;73749.69;;;-142.70;63.17
6224;BME280;3145;42.726;23.342;2024-03-23T03:56:15;73749.69;;;-142.70;63.50
6224;BME280;3145;42.726;23.342;2024-03-23T03:58:40;73755.72;;;-142.70;63.53
6224;BME280;3145;42.726;23.342;2024-03-23T04:01:07;73755.72;;;-142.70;63.03
6224;BME280;3145;42.726;23.342;2024-03-23T04:03:33;73759.75;;;-142.70;63.15
6224;BME280;3145;42.726;23.342;2024-03-23T04:06:01;73757.72;;;-142.70;63.35
6224;BME280;3145;42.726;23.342;2024-03-23T04:08:26;73753.69;;;-142.70;63.98
6224;BME280;3145;42.726;23.342;2024-03-23T04:10:53;73767.81;;;-142.70;63.67
6224;BME280;3145;42.726;23.342;2024-03-23T04:13:19;73769.81;;;-142.70;63.51
6224;BME280;3145;42.726;23.342;2024-03-23T04:15:45;73773.84;;;-142.70;63.62
6224;BME280;3145;42.726;23.342;2024-03-23T04:18:11;73781.91;;;-142.70;63.74
6224;BME280;3145;42.726;23.342;2024-03-23T04:20:38;73785.94;;;-142.70;64.06
6224;BME280;3145;42.726;23.342;2024-03-23T04:23:05;73785.94;;;-142.70;63.68
6224;BME280;3145;42.726;23.342;2024-03-23T04:25:31;73781.91;;;-142.70;64.05
6224;BME280;3145;42.726;23.342;2024-03-23T04:27:57;73777.88;;;-142.70;63.95
6224;BME280;3145;42.726;23.342;2024-03-23T04:30:24;73785.94;;;-142.70;64.13
6224;BME280;3145;42.726;23.342;2024-03-23T04:32:51;73789.97;;;-142.70;64.38
6224;BME280;3145;42.726;23.342;2024-03-23T04:35:18;73787.97;;;-142.70;64.39
6224;BME280;3145;42.726;23.342;2024-03-23T04:37:45;73769.81;;;-142.70;64.81
6224;BME280;3145;42.726;23.342;2024-03-23T04:40:13;73737.59;;;-142.70;65.55
6224;BME280;3145;42.726;23.342;2024-03-23T04:42:40;73719.44;;;-142.70;65.06
6224;BME280;3145;42.726;23.342;2024-03-23T04:45:07;73687.19;;;-142.70;65.02
6224;BME280;3145;42.726;23.342;2024-03-23T04:47:34;73659.00;;;-142.70;64.15
6224;BME280;3145;42.726;23.342;2024-03-23T04:50:01;73620.69;;;-142.70;64.43
6224;BME280;3145;42.726;23.342;2024-03-23T04:52:28;73588.47;;;-142.70;64.20
6224;BME280;3145;42.726;23.342;2024-03-23T04:54:55;73544.13;;;-142.70;63.74
6224;BME280;3145;42.726;23.342;2024-03-23T04:57:23;73499.78;;;-142.70;62.67
6224;BME280;3145;42.726;23.342;2024-03-23T04:59:48;73455.47;;;-142.70;61.20
6224;BME280;3145;42.726;23.342;2024-03-23T05:02:15;73411.13;;;-142.70;59.52
6224;BME280;3145;42.726;23.342;2024-03-23T05:04:41;73366.81;;;-142.70;57.41
6224;BME280;3145;42.726;23.342;2024-03-23T05:07:08;73324.50;;;-142.70;55.26
6224;BME280;3145;42.726;23.342;2024-03-23T05:09:34;73292.25;;;-142.70;54.88
6224;BME280;3145;42.726;23.342;2024-03-23T05:12:00;73241.88;;;-142.70;52.92
6224;BME280;3145;42.726;23.342;2024-03-23T05:14:27;73217.69;;;-142.70;50.92
6224;BME280;3145;42.726;23.342;2024-03-23T05:16:54;73181.44;;;-142.70;49.91
6224;BME280;3145;42.726;23.342;2024-03-23T05:19:21;73145.16;;;-142.70;48.00
6224;BME280;3145;42.726;23.342;2024-03-23T05:21:48;73153.22;;;-142.70;46.73
6224;BME280;3145;42.726;23.342;2024-03-23T05:24:13;73125.00;;;-142.70;46.28
6224;BME280;3145;42.726;23.342;2024-03-23T05:26:40;73074.63;;;-142.70;46.33
6224;BME280;3145;42.726;23.342;2024-03-23T05:29:06;73042.41;;;-142.70;45.40
6224;BME280;3145;42.726;23.342;2024-03-23T05:31:37;73024.28;;;-142.70;44.50
6224;BME280;3145;42.726;23.342;2024-03-23T05:34:03;73044.41;;;-142.70;44.10
6224;BME280;3145;42.726;23.342;2024-03-23T05:36:30;72983.97;;;-142.70;44.13
6224;BME280;3145;42.726;23.342;2024-03-23T05:38:56;72959.78;;;-142.70;43.53
6224;BME280;3145;42.726;23.342;2024-03-23T05:41:22;72925.53;;;-142.70;42.81
6224;BME280;3145;42.726;23.342;2024-03-23T05:43:49;72915.47;;;-142.70;42.04
6224;BME280;3145;42.726;23.342;2024-03-23T05:46:16;72871.16;;;-142.70;42.14
6224;BME280;3145;42.726;23.342;2024-03-23T05:48:44;72867.13;;;-142.70;42.05
6224;BME280;3145;42.726;23.342;2024-03-23T05:51:11;72822.78;;;-142.70;41.94
6224;BME280;3145;42.726;23.342;2024-03-23T05:53:38;72826.81;;;-142.70;40.62
6224;BME280;3145;42.726;23.342;2024-03-23T05:56:05;72798.63;;;-142.70;40.79
6224;BME280;3145;42.726;23.342;2024-03-23T05:58:31;72846.97;;;-142.70;41.04
6224;BME280;3145;42.726;23.342;2024-03-23T06:00:58;72851.00;;;-142.70;40.52
6224;BME280;3145;42.726;23.342;2024-03-23T06:03:24;72881.22;;;-142.70;40.81
6224;BME280;3145;42.726;23.342;2024-03-23T06:05:52;72844.97;;;-142.70;40.44
6224;BME280;3145;42.726;23.342;2024-03-23T06:08:18;72877.19;;;-142.70;40.62
6224;BME280;3145;42.726;23.342;2024-03-23T06:10:45;72875.19;;;-142.70;40.75
6224;BME280;3145;42.726;23.342;2024-03-23T06:13:11;72814.75;;;-142.70;40.38
6224;BME280;3145;42.726;23.342;2024-03-23T06:15:38;72814.75;;;-142.70;40.46
6224;BME280;3145;42.726;23.342;2024-03-23T06:18:04;72740.19;;;-142.70;39.97
6224;BME280;3145;42.726;23.342;2024-03-23T06:20:33;72707.97;;;-142.70;39.70
6224;BME280;3145;42.726;23.342;2024-03-23T06:23:00;72659.63;;;-142.70;38.94
6224;BME280;3145;42.726;23.342;2024-03-23T06:25:27;72657.59;;;-142.70;38.23
6224;BME280;3145;42.726;23.342;2024-03-23T06:27:53;72597.16;;;-142.70;38.48
6224;BME280;3145;42.726;23.342;2024-03-23T06:30:20;72568.97;;;-142.70;37.72
6224;BME280;3145;42.726;23.342;2024-03-23T06:32:45;72593.13;;;-142.70;37.74
6224;BME280;3145;42.726;23.342;2024-03-23T06:35:12;72613.28;;;-142.70;38.12
6224;BME280;3145;42.726;23.342;2024-03-23T06:37:38;72701.91;;;-142.70;38.70
6224;BME280;3145;42.726;23.342;2024-03-23T06:40:08;72726.09;;;-142.70;39.19
6224;BME280;3145;42.726;23.342;2024-03-23T06:42:35;72635.44;;;-142.70;38.71
6224;BME280;3145;42.726;23.342;2024-03-23T06:45:03;72546.78;;;-142.70;38.12
6224;BME280;3145;42.726;23.342;2024-03-23T06:47:29;72500.47;;;-142.70;37.31
6224;BME280;3145;42.726;23.342;2024-03-23T06:49:55;72522.63;;;-142.70;36.69
6224;BME280;3145;42.726;23.342;2024-03-23T06:52:21;72476.28;;;-142.70;37.01
6224;BME280;3145;42.726;23.342;2024-03-23T06:54:48;72552.84;;;-142.70;37.55
6224;BME280;3145;42.726;23.342;2024-03-23T06:57:15;72536.72;;;-142.70;36.94
6224;BME280;3145;42.726;23.342;2024-03-23T06:59:41;72476.28;;;-142.70;36.92
6224;BME280;3145;42.726;23.342;2024-03-23T07:02:07;72425.94;;;-142.70;36.74
6224;BME280;3145;42.726;23.342;2024-03-23T07:04:34;72383.63;;;-142.70;35.17
6224;BME280;3145;42.726;23.342;2024-03-23T07:07:00;72425.94;;;-142.70;35.37
6224;BME280;3145;42.726;23.342;2024-03-23T07:09:27;72448.09;;;-142.70;36.32
6224;BME280;3145;42.726;23.342;2024-03-23T07:11:53;72442.03;;;-142.70;35.94
6224;BME280;3145;42.726;23.342;2024-03-23T07:14:22;72383.63;;;-142.70;35.74
6224;BME280;3145;42.726;23.342;2024-03-23T07:16:47;72395.72;;;-142.70;35.77
6224;BME280;3145;42.726;23.342;2024-03-23T07:19:15;72351.41;;;-142.70;34.90
6224;BME280;3145;42.726;23.342;2024-03-23T07:21:41;72341.31;;;-142.70;34.96
6224;BME280;3145;42.726;23.342;2024-03-23T07:24:08;72272.84;;;-142.70;34.59
6224;BME280;3145;42.726;23.342;2024-03-23T07:26:34;72214.41;;;-142.70;34.63
6224;BME280;3145;42.726;23.342;2024-03-23T07:29:01;72186.22;;;-142.70;33.45
6224;BME280;3145;42.726;23.342;2024-03-23T07:31:28;72135.84;;;-142.70;33.12
6224;BME280;3145;42.726;23.342;2024-03-23T07:33:55;72166.06;;;-142.70;33.32
6224;BME280;3145;42.726;23.342;2024-03-23T07:36:21;72174.13;;;-142.70;33.18
6224;BME280;3145;42.726;23.342;2024-03-23T07:38:47;72194.28;;;-142.70;33.19
6224;BME280;3145;42.726;23.342;2024-03-23T07:41:15;72154.00;;;-142.70;33.04
6224;BME280;3145;42.726;23.342;2024-03-23T07:43:43;72105.66;;;-142.70;33.06
6224;BME280;3145;42.726;23.342;2024-03-23T07:46:09;72117.72;;;-142.70;32.31
6224;BME280;3145;42.726;23.342;2024-03-23T07:48:37;72123.78;;;-142.70;32.58
6224;BME280;3145;42.726;23.342;2024-03-23T07:51:04;72091.53;;;-142.70;32.87
6224;BME280;3145;42.726;23.342;2024-03-23T07:53:31;72081.47;;;-142.70;32.44
6224;BME280;3145;42.726;23.342;2024-03-23T07:55:58;72053.28;;;-142.70;32.60
6224;BME280;3145;42.726;23.342;2024-03-23T07:58:25;72105.66;;;-142.70;32.95
6224;BME280;3145;42.726;23.342;2024-03-23T08:00:52;72041.19;;;-142.70;33.26
6224;BME280;3145;42.726;23.342;2024-03-23T08:03:18;72021.06;;;-142.70;32.99
6224;BME280;3145;42.726;23.342;2024-03-23T08:05:46;71956.59;;;-142.70;32.61
6224;BME280;3145;42.726;23.342;2024-03-23T08:08:13;71928.41;;;-142.70;32.18
6224;BME280;3145;42.726;23.342;2024-03-23T08:10:47;71924.38;;;-142.70;31.91
6224;BME280;3145;42.726;23.342;2024-03-23T08:13:14;72073.41;;;-142.70;32.56
6224;BME280;3145;42.726;23.342;2024-03-23T08:15:40;72025.06;;;-142.70;33.47
6224;BME280;3145;42.726;23.342;2024-03-23T08:18:06;72045.22;;;-142.70;32.64
6224;BME280;3145;42.726;23.342;2024-03-23T08:20:32;72149.97;;;-142.70;33.29
6224;BME280;3145;42.726;23.342;2024-03-23T08:23:00;72145.94;;;-142.70;33.72
6224;BME280;3145;42.726;23.342;2024-03-23T08:25:26;72105.66;;;-142.70;33.46
6224;BME280;3145;42.726;23.342;2024-03-23T08:27:52;72025.06;;;-142.70;32.66
6224;BME280;3145;42.726;23.342;2024-03-23T08:30:18;72013.00;;;-142.70;32.36
6224;BME280;3145;42.726;23.342;2024-03-23T08:32:45;72002.91;;;-142.70;32.05
6224;BME280;3145;42.726;23.342;2024-03-23T08:35:11;71992.84;;;-142.70;32.63
6224;BME280;3145;42.726;23.342;2024-03-23T08:37:38;71982.78;;;-142.70;32.30
6224;BME280;3145;42.726;23.342;2024-03-23T08:40:06;72017.03;;;-142.70;32.66
6224;BME280;3145;42.726;23.342;2024-03-23T08:42:33;72015.00;;;-142.70;32.67
6224;BME280;3145;42.726;23.342;2024-03-23T08:44:59;71994.88;;;-142.70;32.44
6224;BME280;3145;42.726;23.342;2024-03-23T08:47:26;71970.69;;;-142.70;31.98
6224;BME280;3145;42.726;23.342;2024-03-23T08:49:52;72033.13;;;-142.70;33.40
6224;BME280;3145;42.726;23.342;2024-03-23T08:52:18;71968.69;;;-142.70;33.22
6224;BME280;3145;42.726;23.342;2024-03-23T08:54:44;71888.13;;;-142.70;32.05
6224;BME280;3145;42.726;23.342;2024-03-23T08:57:12;71839.78;;;-142.70;32.68
6224;BME280;3145;42.726;23.342;2024-03-23T08:59:38;71865.97;;;-142.70;32.55
6224;BME280;3145;42.726;23.342;2024-03-23T09:02:05;71932.44;;;-142.70;32.11
6224;BME280;3145;42.726;23.342;2024-03-23T09:04:30;71855.88;;;-142.70;32.36
6224;BME280;3145;42.726;23.342;2024-03-23T09:06:57;71825.69;;;-142.70;33.06
6224;BME280;3145;42.726;23.342;2024-03-23T09:09:25;71727.00;;;-142.70;31.15
6224;BME280;3145;42.726;23.342;2024-03-23T09:11:52;71686.72;;;-142.70;30.84
6224;BME280;3145;42.726;23.342;2024-03-23T09:14:19;71656.50;;;-142.70;30.48
6224;BME280;3145;42.726;23.342;2024-03-23T09:16:45;71706.84;;;-142.70;30.39
6224;BME280;3145;42.726;23.342;2024-03-23T09:19:11;71678.66;;;-142.70;30.90
6224;BME280;3145;42.726;23.342;2024-03-23T09:21:38;71638.38;;;-142.70;30.55
6224;BME280;3145;42.726;23.342;2024-03-23T09:24:04;71630.31;;;-142.70;30.20
6224;BME280;3145;42.726;23.342;2024-03-23T09:26:31;71586.00;;;-142.70;30.03
6224;BME280;3145;42.726;23.342;2024-03-23T09:28:57;71642.41;;;-142.70;30.73
6224;BME280;3145;42.726;23.342;2024-03-23T09:31:25;71672.59;;;-142.70;30.95
6224;BME280;3145;42.726;23.342;2024-03-23T09:33:51;71608.16;;;-142.70;31.38
6224;BME280;3145;42.726;23.342;2024-03-23T09:36:18;71666.56;;;-142.70;30.90
6224;BME280;3145;42.726;23.342;2024-03-23T09:38:43;71751.16;;;-142.70;31.70
6224;BME280;3145;42.726;23.342;2024-03-23T09:41:10;71851.84;;;-142.70;32.53
6224;BME280;3145;42.726;23.342;2024-03-23T09:43:37;71771.28;;;-142.70;32.71
6224;BME280;3145;42.726;23.342;2024-03-23T09:46:04;71755.19;;;-142.70;31.68
6224;BME280;3145;42.726;23.342;2024-03-23T09:48:32;71759.22;;;-142.70;31.68
6224;BME280;3145;42.726;23.342;2024-03-23T09:50:58;71718.94;;;-142.70;31.24
6224;BME280;3145;42.726;23.342;2024-03-23T09:53:24;71646.44;;;-142.70;31.80
6224;BME280;3145;42.726;23.342;2024-03-23T09:55:51;71642.41;;;-142.70;31.05
6224;BME280;3145;42.726;23.342;2024-03-23T09:58:18;71598.09;;;-142.70;30.63
6224;BME280;3145;42.726;23.342;2024-03-23T10:00:45;71577.94;;;-142.70;30.20
6224;BME280;3145;42.726;23.342;2024-03-23T10:03:10;71586.00;;;-142.70;30.39
6224;BME280;3145;42.726;23.342;2024-03-23T10:05:40;71600.09;;;-142.70;30.33
6224;BME280;3145;42.726;23.342;2024-03-23T10:08:17;71694.75;;;-142.70;30.91
6224;BME280;3145;42.726;23.342;2024-03-23T10:10:45;71670.59;;;-142.70;31.28
6224;BME280;3145;42.726;23.342;2024-03-23T10:13:11;71636.34;;;-142.70;31.48
6224;BME280;3145;42.726;23.342;2024-03-23T10:15:55;71571.91;;;-142.70;29.74
6224;BME280;3145;42.726;23.342;2024-03-23T10:18:21;71606.16;;;-142.70;29.79
6224;BME280;3145;42.726;23.342;2024-03-23T10:20:51;71666.56;;;-142.70;30.25
6224;BME280;3145;42.726;23.342;2024-03-23T10:23:22;71618.22;;;-142.70;31.16
6224;BME280;3145;42.726;23.342;2024-03-23T10:25:49;71549.75;;;-142.70;29.44
6224;BME280;3145;42.726;23.342;2024-03-23T10:28:14;71551.78;;;-142.70;29.67
6224;BME280;3145;42.726;23.342;2024-03-23T10:30:41;71521.56;;;-142.70;28.69
6224;BME280;3145;42.726;23.342;2024-03-23T10:33:08;71481.28;;;-142.70;27.87
6224;BME280;3145;42.726;23.342;2024-03-23T10:35:36;71517.53;;;-142.70;27.83
6224;BME280;3145;42.726;23.342;2024-03-23T10:38:04;71565.88;;;-142.70;29.24
6224;BME280;3145;42.726;23.342;2024-03-23T10:40:33;71517.53;;;-142.70;29.29
6224;BME280;3145;42.726;23.342;2024-03-23T10:43:00;71441.00;;;-142.70;28.48
6224;BME280;3145;42.726;23.342;2024-03-23T10:45:26;71416.84;;;-142.70;27.38
6224;BME280;3145;42.726;23.342;2024-03-23T10:47:53;71495.38;;;-142.70;29.09
6224;BME280;3145;42.726;23.342;2024-03-23T10:50:19;71418.84;;;-142.70;28.67
6224;BME280;3145;42.726;23.342;2024-03-23T10:52:46;71360.44;;;-142.70;27.43
6224;BME280;3145;42.726;23.342;2024-03-23T10:55:17;71312.13;;;-142.70;27.64
6224;BME280;3145;42.726;23.342;2024-03-23T10:57:47;71296.00;;;-142.70;26.85
6224;BME280;3145;42.726;23.342;2024-03-23T11:00:15;71275.88;;;-142.70;26.97
6224;BME280;3145;42.726;23.342;2024-03-23T11:02:41;71267.81;;;-142.70;26.75
6224;BME280;3145;42.726;23.342;2024-03-23T11:05:29;71211.44;;;-142.70;26.85
6224;BME280;3145;42.726;23.342;2024-03-23T11:07:55;71211.44;;;-142.70;26.42
6224;BME280;3145;42.726;23.342;2024-03-23T11:10:27;71175.19;;;-142.70;26.50
6224;BME280;3145;42.726;23.342;2024-03-23T11:12:54;71261.78;;;-142.70;27.15
6224;BME280;3145;42.726;23.342;2024-03-23T11:15:21;71175.19;;;-142.70;26.50
6224;BME280;3145;42.726;23.342;2024-03-23T11:18:03;71175.19;;;-142.70;26.37
6224;BME280;3145;42.726;23.342;2024-03-23T11:20:34;71122.84;;;-142.70;26.07
6224;BME280;3145;42.726;23.342;2024-03-23T11:23:00;71179.22;;;-142.70;26.67
6224;BME280;3145;42.726;23.342;2024-03-23T11:25:28;71126.84;;;-142.70;26.16
6224;BME280;3145;42.726;23.342;2024-03-23T11:27:55;71102.69;;;-142.70;25.29
6224;BME280;3145;42.726;23.342;2024-03-23T11:30:24;71110.75;;;-142.70;24.87
6224;BME280;3145;42.726;23.342;2024-03-23T11:32:51;71110.75;;;-142.70;25.08
6224;BME280;3145;42.726;23.342;2024-03-23T11:35:26;71118.81;;;-142.70;25.73
6224;BME280;3145;42.726;23.342;2024-03-23T11:38:02;71114.78;;;-142.70;25.55
6224;BME280;3145;42.726;23.342;2024-03-23T11:40:31;71147.00;;;-142.70;25.30
6224;BME280;3145;42.726;23.342;2024-03-23T11:42:58;71159.06;;;-142.70;26.10
6224;BME280;3145;42.726;23.342;2024-03-23T11:45:25;71191.28;;;-142.70;26.53
6224;BME280;3145;42.726;23.342;2024-03-23T11:48:05;71126.84;;;-142.70;26.25
6224;BME280;3145;42.726;23.342;2024-03-23T11:50:32;71106.72;;;-142.70;25.56
6224;BME280;3145;42.726;23.342;2024-03-23T11:53:15;71084.56;;;-142.70;25.37
6224;BME280;3145;42.726;23.342;2024-03-23T11:55:46;71080.53;;;-142.70;25.57
6224;BME280;3145;42.726;23.342;2024-03-23T11:58:13;71050.34;;;-142.70;25.34
6224;BME280;3145;42.726;23.342;2024-03-23T12:00:40;71078.53;;;-142.70;25.46
6224;BME280;3145;42.726;23.342;2024-03-23T12:03:06;71144.97;;;-142.70;25.39
6224;BME280;3145;42.726;23.342;2024-03-23T12:05:33;71118.81;;;-142.70;25.66
6224;BME280;3145;42.726;23.342;2024-03-23T12:08:18;71167.13;;;-142.70;26.20
6224;BME280;3145;42.726;23.342;2024-03-23T12:10:49;71126.84;;;-142.70;25.51
6224;BME280;3145;42.726;23.342;2024-03-23T12:13:16;71138.94;;;-142.70;26.61
6224;BME280;3145;42.726;23.342;2024-03-23T12:15:44;71130.88;;;-142.70;26.52
6224;BME280;3145;42.726;23.342;2024-03-23T12:18:10;71134.91;;;-142.70;26.54
6224;BME280;3145;42.726;23.342;2024-03-23T12:20:37;71165.13;;;-142.70;26.32
6224;BME280;3145;42.726;23.342;2024-03-23T12:23:10;71112.75;;;-142.70;26.12
6224;BME280;3145;42.726;23.342;2024-03-23T12:25:37;71082.56;;;-142.70;25.67
6224;BME280;3145;42.726;23.342;2024-03-23T12:28:05;71058.41;;;-142.70;26.03
6224;BME280;3145;42.726;23.342;2024-03-23T12:30:35;71022.16;;;-142.70;25.72
6224;BME280;3145;42.726;23.342;2024-03-23T12:33:02;71018.13;;;-142.70;25.34
6224;BME280;3145;42.726;23.342;2024-03-23T12:35:29;71058.41;;;-142.70;26.03
6224;BME280;3145;42.726;23.342;2024-03-23T12:37:55;71122.84;;;-142.70;26.00
6224;BME280;3145;42.726;23.342;2024-03-23T12:40:22;71140.94;;;-142.70;25.54
6224;BME280;3145;42.726;23.342;2024-03-23T12:42:47;71161.09;;;-142.70;25.83
6224;BME280;3145;42.726;23.342;2024-03-23T12:45:15;71138.94;;;-142.70;25.69
6224;BME280;3145;42.726;23.342;2024-03-23T12:47:42;71211.44;;;-142.70;25.35
6224;BME280;3145;42.726;23.342;2024-03-23T12:50:09;71251.72;;;-142.70;25.89
6224;BME280;3145;42.726;23.342;2024-03-23T12:52:35;71215.47;;;-142.70;25.76
6224;BME280;3145;42.726;23.342;2024-03-23T12:55:02;71251.72;;;-142.70;26.04
6224;BME280;3145;42.726;23.342;2024-03-23T12:57:28;71223.50;;;-142.70;26.63
6224;BME280;3145;42.726;23.342;2024-03-23T12:59:55;71237.63;;;-142.70;25.68
6224;BME280;3145;42.726;23.342;2024-03-23T13:02:23;71223.50;;;-142.70;25.26
6224;BME280;3145;42.726;23.342;2024-03-23T13:04:50;71171.16;;;-142.70;25.92
6224;BME280;3145;42.726;23.342;2024-03-23T13:07:16;71120.81;;;-142.70;26.20
6224;BME280;3145;42.726;23.342;2024-03-23T13:09:43;71098.66;;;-142.70;25.02
6224;BME280;3145;42.726;23.342;2024-03-23T13:12:08;71138.94;;;-142.70;25.29
6224;BME280;3145;42.726;23.342;2024-03-23T13:14:35;71094.63;;;-142.70;24.73
6224;BME280;3145;42.726;23.342;2024-03-23T13:17:01;71122.84;;;-142.70;25.04
6224;BME280;3145;42.726;23.342;2024-03-23T13:19:30;71094.63;;;-142.70;24.71
6224;BME280;3145;42.726;23.342;2024-03-23T13:21:57;71054.38;;;-142.70;25.08
6224;BME280;3145;42.726;23.342;2024-03-23T13:24:24;71050.34;;;-142.70;23.20
6224;BME280;3145;42.726;23.342;2024-03-23T13:26:50;71074.50;;;-142.70;22.96
6224;BME280;3145;42.726;23.342;2024-03-23T13:29:17;71066.44;;;-142.70;22.75
6224;BME280;3145;42.726;23.342;2024-03-23T13:31:42;71050.34;;;-142.70;22.31
6224;BME280;3145;42.726;23.342;2024-03-23T13:34:09;71094.63;;;-142.70;22.89
6224;BME280;3145;42.726;23.342;2024-03-23T13:36:36;71068.47;;;-142.70;22.59
6224;BME280;3145;42.726;23.342;2024-03-23T13:39:03;71058.41;;;-142.70;22.66
6224;BME280;3145;42.726;23.342;2024-03-23T13:41:34;71042.28;;;-142.70;22.69
6224;BME280;3145;42.726;23.342;2024-03-23T13:44:07;71042.28;;;-142.70;22.44